createdAt,value
2023-02-28T00:00:09.535Z,5.23
2023-02-28T00:02:37.409Z,5.10
2023-02-28T00:05:05.272Z,5.13
2023-02-28T00:07:32.951Z,4.90
2023-02-28T00:10:01.002Z,5.17
2023-02-28T00:12:28.397Z,5.03
2023-02-28T00:14:55.717Z,4.83
2023-02-28T00:17:23.054Z,5.00
2023-02-28T00:19:50.380Z,5.00
2023-02-28T00:22:18.427Z,4.83
2023-02-28T00:24:45.663Z,5.33
2023-02-28T00:27:13.383Z,5.43
2023-02-28T00:29:40.759Z,5.67
2023-02-28T00:32:08.397Z,5.60
2023-02-28T00:34:38.554Z,5.27
2023-02-28T00:37:06.846Z,5.63
2023-02-28T00:39:37.861Z,6.07
2023-02-28T00:42:05.342Z,5.83
2023-02-28T00:44:32.718Z,5.50
2023-02-28T00:47:00.501Z,5.27
2023-02-28T00:49:28.560Z,5.13
2023-02-28T00:51:56.522Z,5.23
2023-02-28T00:54:24.489Z,5.30
2023-02-28T00:56:51.906Z,5.20
2023-02-28T00:59:19.562Z,5.37
2023-02-28T01:01:47.822Z,5.47
2023-02-28T01:04:15.512Z,5.70
2023-02-28T01:06:43.249Z,5.50
2023-02-28T01:09:11.656Z,5.33
2023-02-28T01:11:38.996Z,5.47
2023-02-28T01:14:06.534Z,5.57
2023-02-28T01:16:33.897Z,5.50
2023-02-28T01:19:01.120Z,5.70
2023-02-28T01:21:28.704Z,5.47
2023-02-28T01:23:58.380Z,5.10
2023-02-28T01:26:26.024Z,5.23
2023-02-28T01:28:53.877Z,4.53
2023-02-28T01:31:22.190Z,4.73
2023-02-28T01:33:50.314Z,4.97
2023-02-28T01:36:26.705Z,5.60
2023-02-28T01:38:56.609Z,5.30
2023-02-28T01:41:28.709Z,5.37
2023-02-28T01:44:06.916Z,5.17
2023-02-28T01:46:35.624Z,5.13
2023-02-28T01:49:06.249Z,5.00
2023-02-28T01:51:46.806Z,4.90
2023-02-28T01:54:16.557Z,4.90
2023-02-28T01:56:50.208Z,5.20
2023-02-28T01:59:23.010Z,5.10
2023-02-28T02:01:50.588Z,5.60
2023-02-28T02:04:39.357Z,5.50
2023-02-28T02:07:06.818Z,5.70
2023-02-28T02:09:34.054Z,5.40
2023-02-28T02:12:03.249Z,5.20
2023-02-28T02:14:35.905Z,5.60
2023-02-28T02:17:09.731Z,5.40
2023-02-28T02:19:55.779Z,5.77
2023-02-28T02:22:43.253Z,5.50
2023-02-28T02:25:13.726Z,5.70
2023-02-28T02:27:57.448Z,5.90
2023-02-28T02:30:30.959Z,5.87
2023-02-28T02:33:07.484Z,5.50
2023-02-28T02:35:44.449Z,5.50
2023-02-28T02:38:14.733Z,5.63
2023-02-28T02:40:48.967Z,5.80
2023-02-28T02:43:24.638Z,6.07
2023-02-28T02:45:54.930Z,5.63
2023-02-28T02:48:26.284Z,6.10
2023-02-28T02:50:56.653Z,5.90
2023-02-28T02:53:28.986Z,6.43
2023-02-28T02:55:57.240Z,6.60
2023-02-28T02:58:28.536Z,6.23
2023-02-28T03:00:59.214Z,6.37
2023-02-28T03:03:30.462Z,7.00
2023-02-28T03:06:02.125Z,6.80
2023-02-28T03:08:30.320Z,6.67
2023-02-28T03:10:58.606Z,6.53
2023-02-28T03:13:25.916Z,6.87
2023-02-28T03:16:12.014Z,6.73
2023-02-28T03:18:56.671Z,6.80
2023-02-28T03:21:34.911Z,6.73
2023-02-28T03:24:21.640Z,7.30
2023-02-28T03:26:54.387Z,6.97
2023-02-28T03:29:51.022Z,6.80
2023-02-28T03:32:26.155Z,7.50
2023-02-28T03:34:59.011Z,7.10
2023-02-28T03:37:27.279Z,7.57
2023-02-28T03:40:01.051Z,7.43
2023-02-28T03:42:30.061Z,8.00
2023-02-28T03:45:02.630Z,7.87
2023-02-28T03:47:58.119Z,8.70
2023-02-28T03:50:36.761Z,7.83
2023-02-28T03:53:07.060Z,8.00
2023-02-28T03:55:37.189Z,8.20
2023-02-28T03:58:14.314Z,8.93
2023-02-28T04:00:54.638Z,8.80
2023-02-28T04:03:21.963Z,8.53
2023-02-28T04:05:52.404Z,7.70
2023-02-28T04:08:19.677Z,8.00
2023-02-28T04:10:50.084Z,9.13
2023-02-28T04:13:17.402Z,9.03
2023-02-28T04:15:44.707Z,8.50
2023-02-28T04:18:11.984Z,8.40
2023-02-28T04:20:39.208Z,11.17
2023-02-28T04:23:06.485Z,9.70
2023-02-28T04:25:33.761Z,9.13
2023-02-28T04:28:01.097Z,9.17
2023-02-28T04:30:28.323Z,9.93
2023-02-28T04:32:55.547Z,9.50
2023-02-28T04:35:23.019Z,9.47
2023-02-28T04:37:50.261Z,9.20
2023-02-28T04:40:17.748Z,9.40
2023-02-28T04:42:45.085Z,9.50
2023-02-28T04:45:12.416Z,9.47
2023-02-28T04:47:39.602Z,9.63
2023-02-28T04:50:06.984Z,10.40
2023-02-28T04:52:34.289Z,9.83
2023-02-28T04:55:01.654Z,9.87
2023-02-28T04:57:28.992Z,10.13
2023-02-28T04:59:56.275Z,10.67
2023-02-28T05:02:24.783Z,10.03
2023-02-28T05:04:52.168Z,10.17
2023-02-28T05:07:19.603Z,11.57
2023-02-28T05:09:46.815Z,10.47
2023-02-28T05:12:14.037Z,10.77
2023-02-28T05:14:41.369Z,11.33
2023-02-28T05:17:08.612Z,11.27
2023-02-28T05:19:35.948Z,11.20
2023-02-28T05:22:03.563Z,11.17
2023-02-28T05:24:31.453Z,11.53
2023-02-28T05:26:58.995Z,11.40
2023-02-28T05:29:26.266Z,26.53
2023-02-28T05:31:53.628Z,25.13
2023-02-28T05:34:21.040Z,11.80
2023-02-28T05:36:48.377Z,11.63
2023-02-28T05:39:15.774Z,11.13
2023-02-28T05:41:43.695Z,11.80
2023-02-28T05:44:11.694Z,11.77
2023-02-28T05:46:39.507Z,11.20
2023-02-28T05:49:06.820Z,11.43
2023-02-28T05:51:37.202Z,11.07
2023-02-28T05:54:04.809Z,10.80
2023-02-28T05:56:32.126Z,12.13
2023-02-28T05:58:59.539Z,12.07
2023-02-28T06:01:32.906Z,11.93
2023-02-28T06:04:01.604Z,11.50
2023-02-28T06:06:29.149Z,11.77
2023-02-28T06:08:56.560Z,18.87
2023-02-28T06:11:28.370Z,31.67
2023-02-28T06:13:57.999Z,12.63
2023-02-28T06:16:25.827Z,11.57
2023-02-28T06:18:53.793Z,13.00
2023-02-28T06:21:21.105Z,12.27
2023-02-28T06:23:48.477Z,12.20
2023-02-28T06:26:15.933Z,12.43
2023-02-28T06:28:43.189Z,12.47
2023-02-28T06:31:11.554Z,11.93
2023-02-28T06:33:39.669Z,11.93
2023-02-28T06:36:07.580Z,11.50
2023-02-28T06:38:35.064Z,12.03
2023-02-28T06:41:02.724Z,11.90
2023-02-28T06:43:31.297Z,11.97
2023-02-28T06:45:59.801Z,11.97
2023-02-28T06:48:28.096Z,11.73
2023-02-28T06:51:25.388Z,11.13
2023-02-28T06:53:52.948Z,10.40
2023-02-28T06:56:21.338Z,10.40
2023-02-28T06:58:49.695Z,10.50
2023-02-28T07:01:17.248Z,10.47
2023-02-28T07:03:44.568Z,10.30
2023-02-28T07:06:11.922Z,10.30
2023-02-28T07:08:41.186Z,10.37
2023-02-28T07:11:08.426Z,9.47
2023-02-28T07:13:35.935Z,9.50
2023-02-28T07:16:04.908Z,9.67
2023-02-28T07:18:32.669Z,8.53
2023-02-28T07:20:59.955Z,8.13
2023-02-28T07:23:27.750Z,8.90
2023-02-28T07:25:55.026Z,9.20
2023-02-28T07:28:22.409Z,9.20
2023-02-28T07:30:49.789Z,8.27
2023-02-28T07:33:17.177Z,8.73
2023-02-28T07:35:45.010Z,8.87
2023-02-28T07:38:14.555Z,8.77
2023-02-28T07:40:41.931Z,9.30
2023-02-28T07:43:09.163Z,9.10
2023-02-28T07:45:36.606Z,8.47
2023-02-28T07:48:04.177Z,9.20
2023-02-28T07:50:32.121Z,8.70
2023-02-28T07:53:00.119Z,8.90
2023-02-28T07:55:27.643Z,8.50
2023-02-28T07:57:55.003Z,8.77
2023-02-28T08:00:22.762Z,8.70
2023-02-28T08:02:50.070Z,9.07
2023-02-28T08:05:18.450Z,8.73
2023-02-28T08:07:48.644Z,8.37
2023-02-28T08:10:16.119Z,8.97
2023-02-28T08:12:43.568Z,9.13
2023-02-28T08:15:10.974Z,9.33
2023-02-28T08:17:38.274Z,8.90
2023-02-28T08:20:05.807Z,9.07
2023-02-28T08:22:33.042Z,9.67
2023-02-28T08:25:00.321Z,9.37
2023-02-28T08:27:27.538Z,9.30
2023-02-28T08:29:54.791Z,9.27
2023-02-28T08:32:30.502Z,8.97
2023-02-28T08:34:58.344Z,9.77
2023-02-28T08:37:25.859Z,8.73
2023-02-28T08:39:56.111Z,9.47
2023-02-28T08:42:23.881Z,9.43
2023-02-28T08:44:51.176Z,9.10
2023-02-28T08:47:18.452Z,9.40
2023-02-28T08:49:45.672Z,8.90
2023-02-28T08:52:12.918Z,8.40
2023-02-28T08:54:40.167Z,8.37
2023-02-28T08:57:07.678Z,8.57
2023-02-28T08:59:35.068Z,8.47
2023-02-28T09:02:02.296Z,8.33
2023-02-28T09:04:31.949Z,8.07
2023-02-28T09:06:59.382Z,7.90
2023-02-28T09:09:26.658Z,8.10
2023-02-28T09:11:53.935Z,8.30
2023-02-28T09:14:21.510Z,7.73
2023-02-28T09:16:48.873Z,7.93
2023-02-28T09:19:16.317Z,7.97
2023-02-28T09:21:43.711Z,7.80
2023-02-28T09:24:13.435Z,7.33
2023-02-28T09:26:43.398Z,7.70
2023-02-28T09:29:18.972Z,8.03
2023-02-28T09:31:46.518Z,8.17
2023-02-28T09:34:13.886Z,7.40
2023-02-28T09:36:45.549Z,6.97
2023-02-28T09:39:16.311Z,6.57
2023-02-28T09:41:52.097Z,6.63
2023-02-28T09:44:29.961Z,5.57
2023-02-28T09:47:00.570Z,6.90
2023-02-28T09:49:33.757Z,6.67
2023-02-28T09:52:06.758Z,5.63
2023-02-28T09:54:36.847Z,5.73
2023-02-28T09:57:07.217Z,6.30
2023-02-28T09:59:41.334Z,6.20
2023-02-28T10:02:27.283Z,5.93
2023-02-28T10:04:56.175Z,6.03
2023-02-28T10:07:23.483Z,5.53
2023-02-28T10:09:54.316Z,7.23
2023-02-28T10:12:22.645Z,6.33
2023-02-28T10:14:53.401Z,6.87
2023-02-28T10:17:25.561Z,5.93
2023-02-28T10:19:59.956Z,6.77
2023-02-28T10:22:36.643Z,6.40
2023-02-28T10:25:08.217Z,6.57
2023-02-28T10:27:35.966Z,6.67
2023-02-28T10:30:03.867Z,6.83
2023-02-28T10:32:32.705Z,7.20
2023-02-28T10:35:16.003Z,7.13
2023-02-28T10:37:43.808Z,7.13
2023-02-28T10:40:27.246Z,7.50
2023-02-28T10:42:57.523Z,7.00
2023-02-28T10:45:25.586Z,8.50
2023-02-28T10:47:56.523Z,8.50
2023-02-28T10:50:42.849Z,7.97
2023-02-28T10:53:27.936Z,7.40
2023-02-28T10:56:07.657Z,7.17
2023-02-28T10:58:53.093Z,7.07
2023-02-28T11:01:25.050Z,8.47
2023-02-28T11:03:53.239Z,7.23
2023-02-28T11:06:27.396Z,7.10
2023-02-28T11:09:00.181Z,7.27
2023-02-28T11:11:32.557Z,7.33
2023-02-28T11:14:05.226Z,8.27
2023-02-28T11:16:37.824Z,7.50
2023-02-28T11:19:06.321Z,8.17
2023-02-28T11:21:41.079Z,8.10
2023-02-28T11:24:21.546Z,7.03
2023-02-28T11:26:49.839Z,7.60
2023-02-28T11:29:27.570Z,7.23
2023-02-28T11:32:10.353Z,6.43
2023-02-28T11:34:38.506Z,6.63
2023-02-28T11:37:07.463Z,7.23
2023-02-28T11:39:53.777Z,6.63
2023-02-28T11:42:24.129Z,6.50
2023-02-28T11:45:09.533Z,7.57
2023-02-28T11:47:47.312Z,6.60
2023-02-28T11:50:17.525Z,7.47
2023-02-28T11:52:53.545Z,6.53
2023-02-28T11:55:26.872Z,6.23
2023-02-28T11:57:59.945Z,5.77
2023-02-28T12:00:39.507Z,7.00
2023-02-28T12:03:15.297Z,7.13
2023-02-28T12:05:44.937Z,7.10
2023-02-28T12:08:42.750Z,7.10
2023-02-28T12:11:32.951Z,6.73
2023-02-28T12:14:21.662Z,7.03
2023-02-28T12:17:11.963Z,6.37
2023-02-28T12:20:06.511Z,7.17
2023-02-28T12:23:10.806Z,7.27
2023-02-28T12:26:10.553Z,7.50
2023-02-28T12:28:47.365Z,7.57
2023-02-28T12:31:37.124Z,6.50
2023-02-28T12:34:13.116Z,6.50
2023-02-28T12:36:42.642Z,6.87
2023-02-28T12:39:27.783Z,7.53
2023-02-28T12:42:03.224Z,8.00
2023-02-28T12:44:34.441Z,7.63
2023-02-28T12:47:05.765Z,8.10
2023-02-28T12:49:35.609Z,7.80
2023-02-28T12:52:04.949Z,8.53
2023-02-28T12:54:48.663Z,6.53
2023-02-28T12:57:38.095Z,8.10
2023-02-28T13:00:13.099Z,8.30
2023-02-28T13:02:46.506Z,7.87
2023-02-28T13:05:32.650Z,8.30
2023-02-28T13:08:13.841Z,8.63
2023-02-28T13:10:42.660Z,8.00
2023-02-28T13:13:15.503Z,7.83
2023-02-28T13:15:46.248Z,8.00
2023-02-28T13:18:29.497Z,8.63
2023-02-28T13:20:56.843Z,8.20
2023-02-28T13:23:42.784Z,8.80
2023-02-28T13:26:29.007Z,9.63
2023-02-28T13:28:56.266Z,8.80
2023-02-28T13:31:23.910Z,8.43
2023-02-28T13:33:54.640Z,9.00
2023-02-28T13:36:31.190Z,9.23
2023-02-28T13:39:03.096Z,8.50
2023-02-28T13:41:30.921Z,8.93
2023-02-28T13:44:06.936Z,8.83
2023-02-28T13:46:35.780Z,10.00
2023-02-28T13:49:22.330Z,9.37
2023-02-28T13:51:50.884Z,9.03
2023-02-28T13:54:18.130Z,8.80
2023-02-28T13:56:54.670Z,8.93
2023-02-28T13:59:30.108Z,9.63
2023-02-28T14:02:17.669Z,8.97
2023-02-28T14:04:49.999Z,7.30
2023-02-28T14:07:22.877Z,9.40
2023-02-28T14:09:57.114Z,9.37
2023-02-28T14:12:43.687Z,8.67
2023-02-28T14:15:25.857Z,9.27
2023-02-28T14:18:00.553Z,8.73
2023-02-28T14:20:31.162Z,8.73
2023-02-28T14:22:58.423Z,9.30
2023-02-28T14:25:32.049Z,8.57
2023-02-28T14:27:59.311Z,8.60
2023-02-28T14:30:33.255Z,9.17
2023-02-28T14:33:01.656Z,8.60
2023-02-28T14:35:28.853Z,9.17
2023-02-28T14:37:56.454Z,9.27
2023-02-28T14:40:32.167Z,8.70
2023-02-28T14:43:00.801Z,9.13
2023-02-28T14:45:31.330Z,10.13
2023-02-28T14:47:59.815Z,9.03
2023-02-28T14:50:38.109Z,8.87
2023-02-28T14:53:08.027Z,8.90
2023-02-28T14:55:38.479Z,9.50
2023-02-28T14:58:09.892Z,9.97
2023-02-28T15:00:38.747Z,9.43
2023-02-28T15:03:21.147Z,9.60
2023-02-28T15:05:56.102Z,9.40
2023-02-28T15:08:23.582Z,10.10
2023-02-28T15:10:59.825Z,9.70
2023-02-28T15:13:33.338Z,10.50
2023-02-28T15:16:03.881Z,10.00
2023-02-28T15:18:34.182Z,10.13
2023-02-28T15:21:04.558Z,10.37
2023-02-28T15:23:32.327Z,9.83
2023-02-28T15:26:00.332Z,9.33
2023-02-28T15:28:27.870Z,9.37
2023-02-28T15:31:00.331Z,9.63
2023-02-28T15:33:31.789Z,9.03
2023-02-28T15:36:06.885Z,9.67
2023-02-28T15:38:36.168Z,8.83
2023-02-28T15:41:09.099Z,9.67
2023-02-28T15:43:38.381Z,9.20
2023-02-28T15:46:13.416Z,9.47
2023-02-28T15:48:54.215Z,10.10
2023-02-28T15:51:26.456Z,10.93
2023-02-28T15:53:57.766Z,9.90
2023-02-28T15:56:28.380Z,10.07
2023-02-28T15:58:57.450Z,10.10
2023-02-28T16:01:33.137Z,9.83
2023-02-28T16:04:08.389Z,9.63
2023-02-28T16:06:35.795Z,10.20
2023-02-28T16:09:03.494Z,10.53
2023-02-28T16:11:31.954Z,11.10
2023-02-28T16:13:59.432Z,9.90
2023-02-28T16:16:27.983Z,10.10
2023-02-28T16:18:55.949Z,9.70
2023-02-28T16:21:23.269Z,9.97
2023-02-28T16:23:50.800Z,10.80
2023-02-28T16:26:26.052Z,10.33
2023-02-28T16:28:53.524Z,9.80
2023-02-28T16:31:21.357Z,10.50
2023-02-28T16:33:48.986Z,10.73
2023-02-28T16:36:20.369Z,10.83
2023-02-28T16:38:47.848Z,10.50
2023-02-28T16:41:20.157Z,10.07
2023-02-28T16:43:51.802Z,9.83
2023-02-28T16:46:19.387Z,10.40
2023-02-28T16:48:46.967Z,10.10
2023-02-28T16:51:15.177Z,10.23
2023-02-28T16:53:42.618Z,10.47
2023-02-28T16:56:16.295Z,10.70
2023-02-28T16:58:43.574Z,10.03
2023-02-28T17:01:10.941Z,10.97
2023-02-28T17:03:38.542Z,10.57
2023-02-28T17:06:06.463Z,10.80
2023-02-28T17:08:33.735Z,10.17
2023-02-28T17:11:02.703Z,10.57
2023-02-28T17:13:30.267Z,11.47
2023-02-28T17:15:57.785Z,11.07
2023-02-28T17:18:25.308Z,13.27
2023-02-28T17:20:52.622Z,12.33
2023-02-28T17:23:19.933Z,15.93
2023-02-28T17:25:56.317Z,12.57
2023-02-28T17:28:24.969Z,12.63
2023-02-28T17:30:52.309Z,12.23
2023-02-28T17:33:19.663Z,12.10
2023-02-28T17:35:47.005Z,11.10
2023-02-28T17:38:19.424Z,10.80
2023-02-28T17:40:46.909Z,11.27
2023-02-28T17:43:15.849Z,11.17
2023-02-28T17:45:43.366Z,12.93
2023-02-28T17:48:13.633Z,13.07
2023-02-28T17:50:40.949Z,17.27
2023-02-28T17:53:08.215Z,17.87
2023-02-28T17:55:35.691Z,19.13
2023-02-28T17:58:04.001Z,18.07
2023-02-28T18:00:33.281Z,16.33
2023-02-28T18:03:01.417Z,13.47
2023-02-28T18:05:29.069Z,13.67
2023-02-28T18:08:00.947Z,14.10
2023-02-28T18:10:28.407Z,13.27
2023-02-28T18:12:56.103Z,14.23
2023-02-28T18:15:23.706Z,14.13
2023-02-28T18:17:51.306Z,18.47
2023-02-28T18:20:18.841Z,19.40
2023-02-28T18:22:46.404Z,18.10
2023-02-28T18:25:18.004Z,16.57
2023-02-28T18:27:58.523Z,16.57
2023-02-28T18:30:28.824Z,14.97
2023-02-28T18:32:56.284Z,15.87
2023-02-28T18:35:36.330Z,16.03
2023-02-28T18:38:05.195Z,17.00
2023-02-28T18:40:32.890Z,17.67
2023-02-28T18:43:00.328Z,17.30
2023-02-28T18:45:28.170Z,16.37
2023-02-28T18:47:55.748Z,18.37
2023-02-28T18:50:23.130Z,20.63
2023-02-28T18:52:51.560Z,28.13
2023-02-28T18:55:19.115Z,17.13
2023-02-28T18:57:49.544Z,20.00
2023-02-28T19:00:22.443Z,17.90
2023-02-28T19:02:50.727Z,18.40
2023-02-28T19:05:18.741Z,17.30
2023-02-28T19:07:46.473Z,15.63
2023-02-28T19:10:13.657Z,16.40
2023-02-28T19:12:43.244Z,16.60
2023-02-28T19:15:11.518Z,16.43
2023-02-28T19:17:39.219Z,15.50
2023-02-28T19:20:07.223Z,13.20
2023-02-28T19:22:34.547Z,13.63
2023-02-28T19:25:01.915Z,12.67
2023-02-28T19:27:29.218Z,13.60
2023-02-28T19:29:59.137Z,14.80
2023-02-28T19:32:27.487Z,14.90
2023-02-28T19:34:54.772Z,15.13
2023-02-28T19:37:22.204Z,15.47
2023-02-28T19:39:49.709Z,15.27
2023-02-28T19:42:18.563Z,15.17
2023-02-28T19:44:46.019Z,15.63
2023-02-28T19:47:14.506Z,16.43
2023-02-28T19:49:41.901Z,17.47
2023-02-28T19:52:13.319Z,17.33
2023-02-28T19:54:42.852Z,17.80
2023-02-28T19:57:10.083Z,17.73
2023-02-28T19:59:39.857Z,16.90
2023-02-28T20:02:08.351Z,16.20
2023-02-28T20:04:35.873Z,16.67
2023-02-28T20:07:03.170Z,17.20
2023-02-28T20:09:33.836Z,17.63
2023-02-28T20:12:01.641Z,18.60
2023-02-28T20:14:28.892Z,18.13
2023-02-28T20:16:58.222Z,21.30
2023-02-28T20:19:25.712Z,23.20
2023-02-28T20:21:53.072Z,21.40
2023-02-28T20:24:23.143Z,22.13
2023-02-28T20:26:50.467Z,22.87
2023-02-28T20:29:17.757Z,22.97
2023-02-28T20:31:45.076Z,24.13
2023-02-28T20:34:12.432Z,23.43
2023-02-28T20:36:40.118Z,23.13
2023-02-28T20:39:07.494Z,22.67
2023-02-28T20:41:34.854Z,22.13
2023-02-28T20:44:05.006Z,22.10
2023-02-28T20:46:34.678Z,29.10
2023-02-28T20:49:02.185Z,28.57
2023-02-28T20:51:29.789Z,21.27
2023-02-28T20:53:57.225Z,22.73
2023-02-28T20:56:24.732Z,22.27
2023-02-28T20:58:53.206Z,23.90
2023-02-28T21:01:26.009Z,24.43
2023-02-28T21:04:12.361Z,21.43
2023-02-28T21:06:42.949Z,23.03
2023-02-28T21:09:11.378Z,21.43
2023-02-28T21:11:39.437Z,22.23
2023-02-28T21:14:08.038Z,21.00
2023-02-28T21:16:37.623Z,23.37
2023-02-28T21:19:05.600Z,21.93
2023-02-28T21:21:34.251Z,21.70
2023-02-28T21:24:01.994Z,21.43
2023-02-28T21:26:29.737Z,21.10
2023-02-28T21:28:58.709Z,21.67
2023-02-28T21:31:27.380Z,21.63
2023-02-28T21:33:55.805Z,20.70
2023-02-28T21:36:24.207Z,20.63
2023-02-28T21:38:56.560Z,21.73
2023-02-28T21:41:24.381Z,20.23
2023-02-28T21:43:52.056Z,20.93
2023-02-28T21:46:21.085Z,20.43
2023-02-28T21:48:49.577Z,21.37
2023-02-28T21:51:18.609Z,20.70
2023-02-28T21:53:45.815Z,21.77
2023-02-28T21:56:25.239Z,22.17
2023-02-28T21:59:00.199Z,20.67
2023-02-28T22:01:32.270Z,20.57
2023-02-28T22:04:00.304Z,21.53
2023-02-28T22:06:29.042Z,21.03
2023-02-28T22:08:57.668Z,21.60
2023-02-28T22:11:26.190Z,21.80
2023-02-28T22:13:55.904Z,21.57
2023-02-28T22:16:24.193Z,21.63
2023-02-28T22:18:51.478Z,22.30
2023-02-28T22:21:19.611Z,23.10
2023-02-28T22:23:47.164Z,24.17
2023-02-28T22:26:16.727Z,23.47
2023-02-28T22:28:44.459Z,24.10
2023-02-28T22:31:14.860Z,24.00
2023-02-28T22:33:42.548Z,23.00
2023-02-28T22:36:10.445Z,22.47
2023-02-28T22:38:38.006Z,22.17
2023-02-28T22:41:06.200Z,22.17
2023-02-28T22:43:33.758Z,22.43
2023-02-28T22:46:05.124Z,22.67
2023-02-28T22:48:34.241Z,21.63
2023-02-28T22:51:05.206Z,22.67
2023-02-28T22:53:33.603Z,22.60
2023-02-28T22:56:01.147Z,24.13
2023-02-28T22:58:28.875Z,23.23
2023-02-28T23:00:56.304Z,24.07
2023-02-28T23:03:24.902Z,23.23
2023-02-28T23:05:53.150Z,22.90
2023-02-28T23:08:23.945Z,23.27
2023-02-28T23:10:51.862Z,23.53
2023-02-28T23:13:19.778Z,22.43
2023-02-28T23:15:47.929Z,23.47
2023-02-28T23:18:15.736Z,23.03
2023-02-28T23:20:43.135Z,22.60
2023-02-28T23:23:10.681Z,21.10
2023-02-28T23:25:41.223Z,22.87
2023-02-28T23:28:10.120Z,23.07
2023-02-28T23:30:38.689Z,23.27
2023-02-28T23:33:06.867Z,22.53
2023-02-28T23:35:34.754Z,22.53
2023-02-28T23:38:02.162Z,21.33
2023-02-28T23:40:29.577Z,21.13
2023-02-28T23:42:56.996Z,21.27
2023-02-28T23:45:24.347Z,21.93
2023-02-28T23:47:51.792Z,19.97
2023-02-28T23:50:19.118Z,21.50
2023-02-28T23:52:46.409Z,20.63
2023-02-28T23:55:13.743Z,20.70
2023-02-28T23:57:41.261Z,20.87
